CAMP SANTIAGO PR US current weather conditions

sailwx.info

Wind from 127 at 13 knots gusting 19

Air temperature 30.0° C
Dewpoint 19.7° C

Last reported at 2019-Dec-06 19:09 UTC.
Time now 2019-Dec-06 20:34 UTC

Location: N 18°00' W 066°17'.
View on Google Maps.

See reports from other nearby stations

  
Tides and Currents Weather Stations Pressure Air Temp Water Temp Dewpoint Dewpoint Depression Visibility Wind Speed Wind Dir Waves Ship Positions
date/time (UTC)wind fromknots sea level pressurealtimeterstation pressurevisibilityair tempwater tempwave heightnotes
2019-Dec-06 19:09 127 13 gusting 19 30.0
2019-Dec-06 18:09 125 12 gusting 19 30.6
2019-Dec-06 17:09 129 11 gusting 17 31.1
2019-Dec-06 16:09 128 11 gusting 18 30.6
2019-Dec-06 15:09 121 10 gusting 16 30.0
2019-Dec-06 14:09 116 11 gusting 16 30.0
2019-Dec-06 13:09 113 4 gusting 8 29.4
2019-Dec-06 12:09 070 5 gusting 6 26.7
2019-Dec-06 11:09 052 4 gusting 6 25.6
2019-Dec-06 10:09 045 4 gusting 8 25.0
2019-Dec-06 09:09 026 6 gusting 8 25.0
2019-Dec-06 08:09 020 6 gusting 7 25.6
2019-Dec-06 07:09 022 4 gusting 5 25.6
2019-Dec-06 06:09 343 4 gusting 6 24.4
2019-Dec-06 05:09 001 4 gusting 6 25.0
2019-Dec-06 04:09 017 5 gusting 6 25.6
2019-Dec-06 03:09 047 3 gusting 6 26.1
2019-Dec-06 02:09 048 2 gusting 5 26.1
2019-Dec-06 01:09 043 3 gusting 6 26.1
2019-Dec-06 00:09 051 4 gusting 6 26.7
2019-Dec-05 23:09 052 3 gusting 6 26.1
2019-Dec-05 22:09 090 4 gusting 11 26.7
2019-Dec-05 21:09 118 8 gusting 12 28.3
2019-Dec-05 20:09 117 7 gusting 15 30.0
2019-Dec-05 19:09 111 10 gusting 15 30.6
2019-Dec-05 18:09 119 10 gusting 16 30.0
2019-Dec-05 17:09 131 10 gusting 18 30.6
2019-Dec-05 16:09 117 11 gusting 15 30.6
2019-Dec-05 15:09 123 11 gusting 15 30.0
2019-Dec-05 14:09 113 6 gusting 12 29.4
2019-Dec-05 13:09 110 6 gusting 9 29.4
2019-Dec-05 12:09 068 5 gusting 7 28.3
2019-Dec-05 11:09 042 4 gusting 6 25.6
2019-Dec-05 10:09 038 4 gusting 7 25.6
2019-Dec-05 09:09 070 5 gusting 7 25.6
2019-Dec-05 08:09 059 5 gusting 8 25.6
2019-Dec-05 07:09 051 4 gusting 6 25.6
2019-Dec-05 06:09 049 3 gusting 6 25.6
2019-Dec-05 05:09 035 4 gusting 6 25.6
2019-Dec-05 04:09 028 3 gusting 7 26.1
2019-Dec-05 03:09 032 4 gusting 6 26.7
2019-Dec-05 02:09 022 5 gusting 6 26.1
2019-Dec-05 01:09 031 4 gusting 5 26.1
2019-Dec-05 00:09 035 5 gusting 6 26.7
2019-Dec-04 23:09 044 3 gusting 6 26.1
2019-Dec-04 22:09 076 3 gusting 9 25.6
2019-Dec-04 21:09 098 5 gusting 8 27.8
2019-Dec-04 20:09 108 5 gusting 9 27.8